Flight Track Log - Related Links

Times and Time Zones

All times are in EDT time to prevent confusion due to time zone crossing. See the UPS618 flight status page for this flight to view local times or setup timezone preferences in your user account.

Time Position Orientation Groundspeed Altitude Reporting Facility
EDT Latitude Longitude Course Direction KTS MPH feet Rate Location/Type
Sat 06:46:25 AM 39.8133 -82.9289 303° West 128 147 1,900  Level Indianapolis Center
Sat 06:46:50 AM 39.8011 -82.9461 227° Southwest 167 192 2,900 1,161 Climbing Indianapolis Center
Sat 06:47:27 AM 39.7886 -82.9694 235° Southwest 190 219 3,100 2,510 Climbing Indianapolis Center
Sat 06:48:00 AM 39.8551 -83.0293 298° West  Level FlightAware Approximate
Sat 06:48:28 AM 39.7806 -83.0461 262° West 229 264 7,000  Level Indianapolis Center
Sat 06:49:00 AM 39.9030 -83.1424 294° West  Level FlightAware Approximate
Sat 06:49:28 AM 39.7969 -83.1275 285° West 240 276 9,800  Level Indianapolis Center
Sat 06:50:00 AM 39.9470 -83.2546 288° West  Level FlightAware Approximate
Sat 06:50:29 AM 39.8450 -83.2311 301° West 319 367 13,400  Level Indianapolis Center
Sat 06:51:00 AM 39.9990 -83.3646 303° West  Level FlightAware Approximate
Sat 06:51:30 AM 39.8911 -83.3383 299° West 350 403 18,200  Level Indianapolis Center
Sat 06:52:30 AM 39.9389 -83.4503 299° West 364 419 22,100 2,579 Climbing Indianapolis Center
Sat 06:53:31 AM 39.9894 -83.5672 299° West 378 435 23,400 3,620 Climbing Indianapolis Center
Sat 06:54:31 AM 40.0364 -83.6767 299° West 334 384 29,400 4,165 Climbing Indianapolis Center
Sat 06:55:32 AM 40.0831 -83.7856 299° West 343 395 31,800 1,279 Climbing Indianapolis Center
Sat 06:56:33 AM 40.1342 -83.9053 299° West 390 449 32,000 29 Climbing Indianapolis Center
Sat 07:02:20 AM 40.4408 -84.6351 298° West 388 447 32,000  Level FlightAware ADS-B
Sat 07:04:04 AM 40.5234 -84.8344 298° West 389 448 32,000  Level FlightAware ADS-B
Sat 07:06:09 AM 40.6356 -85.1135 296° West 391 450 32,000  Level FlightAware ADS-B
Sat 07:06:39 AM 40.6549 -85.1661 296° West 392 451 32,000  Level FlightAware ADS-B
Sat 07:07:23 AM 40.6928 -85.2685 296° West 392 451 32,000  Level FlightAware ADS-B
Sat 07:08:22 AM 40.7397 -85.3943 296° West 393 452 32,000  Level FlightAware ADS-B
Sat 07:08:52 AM 40.7657 -85.4642 296° West 392 451 32,000  Level FlightAware ADS-B
Sat 07:12:08 AM 40.9142 -85.8682 296° West 391 450 32,000  Level FlightAware ADS-B
Sat 07:12:50 AM 40.9528 -85.9741 296° West 391 450 32,000  Level FlightAware ADS-B
Sat 07:13:24 AM 40.9789 -86.0460 296° West 391 450 32,000  Level FlightAware ADS-B
Sat 07:14:10 AM 41.0152 -86.1465 296° West 392 451 32,000  Level FlightAware ADS-B
Sat 07:14:43 AM 41.0362 -86.2048 296° West 392 451 32,000  Level FlightAware ADS-B
Sat 07:15:48 AM 41.0913 -86.3579 295° West 393 452 32,000  Level FlightAware ADS-B
Sat 07:16:23 AM 41.1186 -86.4343 295° West 392 451 32,000  Level FlightAware ADS-B
Sat 07:17:31 AM 41.1714 -86.5823 295° West 390 449 32,000  Level FlightAware ADS-B
Sat 07:18:03 AM 41.1961 -86.6515 295° West 388 447 32,000  Level FlightAware ADS-B
Sat 07:18:38 AM 41.2227 -86.7265 295° West 386 444 32,000  Level FlightAware ADS-B
Sat 07:19:12 AM 41.2476 -86.7972 295° West 385 443 32,000  Level FlightAware ADS-B
Sat 07:19:43 AM 41.2711 -86.8638 295° West 386 444 32,000  Level FlightAware ADS-B
Sat 07:20:23 AM 41.3018 -86.9509 295° West 385 443 32,000  Level FlightAware ADS-B
Sat 07:20:53 AM 41.3238 -87.0135 295° West 385 443 32,000  Level FlightAware ADS-B
Sat 07:21:25 AM 41.3380 -87.0539 295° West 384 442 32,000  Level FlightAware ADS-B
Sat 07:22:03 AM 41.3767 -87.1653 295° West 385 443 32,000  Level FlightAware ADS-B
Sat 07:22:33 AM 41.3987 -87.2281 295° West 386 444 32,000 -900 Level FlightAware ADS-B
Sat 07:23:03 AM 41.4213 -87.2934 295° West 384 442 31,100 -2,486 Descending FlightAware ADS-B
Sat 07:23:43 AM 41.4508 -87.3777 295° West 375 432 29,100 -2,945 Descending FlightAware ADS-B
Sat 07:23:58 AM 41.4617 -87.4098 295° West 374 430 28,400 -3,184 Descending FlightAware ADS-B
Sat 07:24:32 AM 41.4856 -87.4794 295° West 367 422 26,500 -3,120 Descending FlightAware ADS-B
Sat 07:25:13 AM 41.5098 -87.5660 285° West 358 412 24,500 -2,789 Descending FlightAware ADS-B
Sat 07:25:43 AM 41.5192 -87.6296 279° West 350 403 23,200 -2,300 Descending FlightAware ADS-B
Sat 07:26:13 AM 41.5273 -87.6926 280° West 344 396 22,200 -1,200 Descending FlightAware ADS-B
Sat 07:26:43 AM 41.5340 -87.7474 279° West 347 399 22,000 -200 Descending FlightAware ADS-B
Sat 07:27:13 AM 41.5424 -87.8190 279° West 351 404 22,000  Level FlightAware ADS-B
Sat 07:27:43 AM 41.5497 -87.8839 279° West 352 405 22,000  Level FlightAware ADS-B
Sat 07:28:13 AM 41.5569 -87.9475 279° West 354 407 22,000  Level FlightAware ADS-B
Sat 07:28:43 AM 41.5645 -88.0140 279° West 390 449 22,000  Level FlightAware ADS-B
Sat 07:29:13 AM 41.5727 -88.0870 278° West 400 460 22,000 -100 Level FlightAware ADS-B
Sat 07:29:43 AM 41.5807 -88.1586 278° West 396 456 21,900 -435 Descending FlightAware ADS-B
Sat 07:30:22 AM 41.5912 -88.2533 278° West 384 442 21,500 -1,169 Descending FlightAware ADS-B
Sat 07:31:00 AM 41.5991 -88.3247 279° West 370 426 20,400 -1,521 Descending FlightAware ADS-B
Sat 07:31:33 AM 41.6086 -88.4103 278° West 365 420 19,700 -1,660 Descending FlightAware ADS-B
Sat 07:31:47 AM 41.6125 -88.4456 278° West 363 418 19,100 -1,440 Descending FlightAware ADS-B
Sat 07:32:23 AM 41.6211 -88.5241 278° West 358 412 18,500 -1,182 Descending FlightAware ADS-B
Sat 07:32:53 AM 41.6275 -88.5840 278° West 354 407 17,800 -1,400 Descending FlightAware ADS-B
Sat 07:33:23 AM 41.6348 -88.6513 278° West 350 403 17,100 -1,500 Descending FlightAware ADS-B
Sat 07:33:53 AM 41.6409 -88.7082 278° West 350 403 16,300 -2,200 Descending FlightAware ADS-B
Sat 07:34:23 AM 41.6488 -88.7815 278° West 341 392 14,900 -2,700 Descending FlightAware ADS-B
Sat 07:34:53 AM 41.6550 -88.8417 278° West 333 383 13,600 -1,900 Descending FlightAware ADS-B
Sat 07:35:23 AM 41.6614 -88.9012 278° West 315 362 13,000 -600 Descending FlightAware ADS-B
Sat 07:35:53 AM 41.6672 -88.9564 278° West 276 318 13,000  Level FlightAware ADS-B
Sat 07:36:23 AM 41.6722 -89.0043 278° West 260 299 13,000  Level FlightAware ADS-B
Sat 07:36:53 AM 41.6771 -89.0519 278° West 257 296 13,000 -92 Level FlightAware ADS-B
Sat 07:37:28 AM 41.6825 -89.1035 279° West 258 297 12,900 -822 Descending FlightAware ADS-B
Sat 07:38:06 AM 41.7034 -89.1579 318° Northwest 258 297 12,000 -1,444 Descending FlightAware ADS-B
Sat 07:38:22 AM 41.7156 -89.1678 341° North 269 310 11,600 -2,069 Descending FlightAware ADS-B
Sat 07:38:35 AM 41.7371 -89.1735 355° North 272 313 11,000 -2,400 Descending FlightAware ADS-B
Sat 07:38:42 AM 41.7424 -89.1732 North 277 319 10,800 -2,241 Descending FlightAware ADS-B
Sat 07:39:58 AM 41.8281 -89.1544 North 278 320 7,900 -2,321 Descending Chicago Center
Sat 07:40:59 AM 41.9003 -89.1378 10° North 257 296 5,500 -2,410 Descending Chicago Center
Sat 07:42:00 AM 41.9875 -89.1203 North 265 305 3,000 -1,230 Descending Chicago Center
Sat 07:43:01 AM 42.0511 -89.1092 North 238 274 3,000 -295 Level Chicago Center
Sat 07:44:02 AM 42.0961 -89.1017 North 194 223 2,400 -443 Descending Chicago Center
Sat 07:45:03 AM 42.1469 -89.0917 North 190 219 2,100 -295 Descending Chicago Center

Login

Don't have an account? Register now (free) for customized features, flight alerts, and more!